sensor_id;sensor_type;location;lat;lon;timestamp;pressure;altitude;pressure_sealevel;temperature;humidity
12471;BME280;36499;46.484;13.832;2024-01-30T00:01:15;94871.53;;;-5.44;100.00
12471;BME280;36499;46.484;13.832;2024-01-30T00:03:42;94870.59;;;-5.40;100.00
12471;BME280;36499;46.484;13.832;2024-01-30T00:06:09;94872.91;;;-5.32;100.00
12471;BME280;36499;46.484;13.832;2024-01-30T00:08:35;94870.22;;;-5.57;100.00
12471;BME280;36499;46.484;13.832;2024-01-30T00:11:04;94863.94;;;-5.73;100.00
12471;BME280;36499;46.484;13.832;2024-01-30T00:13:31;94863.06;;;-5.72;100.00
12471;BME280;36499;46.484;13.832;2024-01-30T00:15:57;94859.59;;;-5.68;100.00
12471;BME280;36499;46.484;13.832;2024-01-30T00:18:24;94869.34;;;-5.56;100.00
12471;BME280;36499;46.484;13.832;2024-01-30T00:20:51;94864.94;;;-5.49;100.00
12471;BME280;36499;46.484;13.832;2024-01-30T00:23:18;94862.38;;;-5.48;100.00
12471;BME280;36499;46.484;13.832;2024-01-30T00:25:45;94859.53;;;-5.37;100.00
12471;BME280;36499;46.484;13.832;2024-01-30T00:28:13;94861.13;;;-5.33;100.00
12471;BME280;36499;46.484;13.832;2024-01-30T00:30:40;94861.03;;;-5.30;100.00
12471;BME280;36499;46.484;13.832;2024-01-30T00:33:07;94858.66;;;-5.36;100.00
12471;BME280;36499;46.484;13.832;2024-01-30T00:35:34;94852.81;;;-5.38;100.00
12471;BME280;36499;46.484;13.832;2024-01-30T00:38:01;94856.88;;;-5.33;100.00
12471;BME280;36499;46.484;13.832;2024-01-30T00:40:28;94860.03;;;-5.26;100.00
12471;BME280;36499;46.484;13.832;2024-01-30T00:42:54;94862.00;;;-5.34;100.00
12471;BME280;36499;46.484;13.832;2024-01-30T00:45:23;94858.53;;;-5.32;100.00
12471;BME280;36499;46.484;13.832;2024-01-30T00:47:49;94855.97;;;-5.30;100.00
12471;BME280;36499;46.484;13.832;2024-01-30T00:50:16;94860.56;;;-5.15;100.00
12471;BME280;36499;46.484;13.832;2024-01-30T00:52:43;94853.59;;;-5.08;100.00
12471;BME280;36499;46.484;13.832;2024-01-30T00:55:10;94859.19;;;-4.97;100.00
12471;BME280;36499;46.484;13.832;2024-01-30T00:57:37;94860.47;;;-5.12;100.00
12471;BME280;36499;46.484;13.832;2024-01-30T01:00:05;94855.47;;;-5.43;100.00
12471;BME280;36499;46.484;13.832;2024-01-30T01:02:35;94854.72;;;-5.46;100.00
12471;BME280;36499;46.484;13.832;2024-01-30T01:05:02;94863.25;;;-5.49;100.00
12471;BME280;36499;46.484;13.832;2024-01-30T01:07:30;94862.13;;;-5.39;100.00
12471;BME280;36499;46.484;13.832;2024-01-30T01:09:57;94849.72;;;-5.48;100.00
12471;BME280;36499;46.484;13.832;2024-01-30T01:12:23;94858.97;;;-5.47;100.00
12471;BME280;36499;46.484;13.832;2024-01-30T01:14:50;94854.59;;;-5.42;100.00
12471;BME280;36499;46.484;13.832;2024-01-30T01:17:17;94851.13;;;-5.67;100.00
12471;BME280;36499;46.484;13.832;2024-01-30T01:19:45;94860.09;;;-5.57;100.00
12471;BME280;36499;46.484;13.832;2024-01-30T01:22:12;94859.31;;;-5.59;100.00
12471;BME280;36499;46.484;13.832;2024-01-30T01:24:39;94861.41;;;-5.44;100.00
12471;BME280;36499;46.484;13.832;2024-01-30T01:27:06;94853.13;;;-5.21;100.00
12471;BME280;36499;46.484;13.832;2024-01-30T01:29:32;94854.69;;;-5.17;100.00
12471;BME280;36499;46.484;13.832;2024-01-30T01:31:59;94854.66;;;-5.15;100.00
12471;BME280;36499;46.484;13.832;2024-01-30T01:34:26;94856.13;;;-5.08;100.00
12471;BME280;36499;46.484;13.832;2024-01-30T01:36:54;94847.31;;;-5.25;100.00
12471;BME280;36499;46.484;13.832;2024-01-30T01:39:22;94846.88;;;-5.37;100.00
12471;BME280;36499;46.484;13.832;2024-01-30T01:41:49;94846.50;;;-5.25;100.00
12471;BME280;36499;46.484;13.832;2024-01-30T01:44:17;94841.50;;;-5.27;100.00
12471;BME280;36499;46.484;13.832;2024-01-30T01:46:44;94839.94;;;-5.31;100.00
12471;BME280;36499;46.484;13.832;2024-01-30T01:49:11;94836.16;;;-5.47;100.00
12471;BME280;36499;46.484;13.832;2024-01-30T01:51:38;94839.56;;;-5.48;100.00
12471;BME280;36499;46.484;13.832;2024-01-30T01:54:08;94834.50;;;-5.48;100.00
12471;BME280;36499;46.484;13.832;2024-01-30T01:56:35;94835.88;;;-5.36;100.00
12471;BME280;36499;46.484;13.832;2024-01-30T01:59:06;94836.03;;;-5.14;100.00
12471;BME280;36499;46.484;13.832;2024-01-30T02:01:33;94830.00;;;-5.10;100.00
12471;BME280;36499;46.484;13.832;2024-01-30T02:04:01;94835.88;;;-5.36;100.00
12471;BME280;36499;46.484;13.832;2024-01-30T02:06:28;94828.63;;;-5.48;100.00
12471;BME280;36499;46.484;13.832;2024-01-30T02:08:55;94829.97;;;-5.37;100.00
12471;BME280;36499;46.484;13.832;2024-01-30T02:11:24;94827.88;;;-5.52;100.00
12471;BME280;36499;46.484;13.832;2024-01-30T02:13:50;94819.63;;;-5.88;100.00
12471;BME280;36499;46.484;13.832;2024-01-30T02:16:17;94813.84;;;-5.93;100.00
12471;BME280;36499;46.484;13.832;2024-01-30T02:18:44;94819.59;;;-5.87;100.00
12471;BME280;36499;46.484;13.832;2024-01-30T02:21:15;94820.25;;;-5.80;100.00
12471;BME280;36499;46.484;13.832;2024-01-30T02:23:43;94813.66;;;-5.86;100.00
12471;BME280;36499;46.484;13.832;2024-01-30T02:26:10;94816.13;;;-5.84;100.00
12471;BME280;36499;46.484;13.832;2024-01-30T02:28:37;94818.38;;;-5.73;100.00
12471;BME280;36499;46.484;13.832;2024-01-30T02:31:04;94820.00;;;-5.71;100.00
12471;BME280;36499;46.484;13.832;2024-01-30T02:33:31;94816.97;;;-5.54;100.00
12471;BME280;36499;46.484;13.832;2024-01-30T02:35:58;94825.88;;;-5.41;100.00
12471;BME280;36499;46.484;13.832;2024-01-30T02:38:26;94825.13;;;-5.44;100.00
12471;BME280;36499;46.484;13.832;2024-01-30T02:40:54;94826.16;;;-5.52;100.00
12471;BME280;36499;46.484;13.832;2024-01-30T02:43:21;94821.97;;;-5.53;100.00
12471;BME280;36499;46.484;13.832;2024-01-30T02:45:48;94821.19;;;-5.55;100.00
12471;BME280;36499;46.484;13.832;2024-01-30T02:48:14;94825.88;;;-5.70;100.00
12471;BME280;36499;46.484;13.832;2024-01-30T02:50:41;94818.91;;;-5.93;100.00
12471;BME280;36499;46.484;13.832;2024-01-30T02:53:08;94809.69;;;-5.96;100.00
12471;BME280;36499;46.484;13.832;2024-01-30T02:55:36;94819.47;;;-5.82;100.00
12471;BME280;36499;46.484;13.832;2024-01-30T02:58:03;94821.53;;;-5.65;100.00
12471;BME280;36499;46.484;13.832;2024-01-30T03:00:30;94812.06;;;-5.60;100.00
12471;BME280;36499;46.484;13.832;2024-01-30T03:02:57;94815.03;;;-5.46;100.00
12471;BME280;36499;46.484;13.832;2024-01-30T03:08:45;94800.28;;;-5.32;100.00
12471;BME280;36499;46.484;13.832;2024-01-30T03:11:13;94802.81;;;-5.32;100.00
12471;BME280;36499;46.484;13.832;2024-01-30T03:13:40;94802.16;;;-5.38;100.00
12471;BME280;36499;46.484;13.832;2024-01-30T03:16:08;94794.00;;;-5.48;100.00
12471;BME280;36499;46.484;13.832;2024-01-30T03:18:35;94792.16;;;-5.43;100.00
12471;BME280;36499;46.484;13.832;2024-01-30T03:21:02;94792.66;;;-5.32;100.00
12471;BME280;36499;46.484;13.832;2024-01-30T03:23:29;94789.66;;;-5.44;100.00
12471;BME280;36499;46.484;13.832;2024-01-30T03:25:57;94792.72;;;-5.61;100.00
12471;BME280;36499;46.484;13.832;2024-01-30T03:28:26;94792.31;;;-5.77;100.00
12471;BME280;36499;46.484;13.832;2024-01-30T03:30:52;94794.34;;;-5.90;100.00
12471;BME280;36499;46.484;13.832;2024-01-30T03:33:19;94780.53;;;-6.07;100.00
12471;BME280;36499;46.484;13.832;2024-01-30T03:35:46;94781.66;;;-6.18;100.00
12471;BME280;36499;46.484;13.832;2024-01-30T03:38:13;94785.72;;;-6.12;100.00
12471;BME280;36499;46.484;13.832;2024-01-30T03:40:40;94791.44;;;-6.05;100.00
12471;BME280;36499;46.484;13.832;2024-01-30T03:43:07;94790.03;;;-5.86;100.00
12471;BME280;36499;46.484;13.832;2024-01-30T03:45:35;94794.19;;;-5.83;100.00
12471;BME280;36499;46.484;13.832;2024-01-30T03:48:02;94801.91;;;-5.88;100.00
12471;BME280;36499;46.484;13.832;2024-01-30T03:50:29;94802.22;;;-5.99;100.00
12471;BME280;36499;46.484;13.832;2024-01-30T03:52:55;94793.06;;;-6.03;100.00
12471;BME280;36499;46.484;13.832;2024-01-30T03:55:22;94797.25;;;-6.02;100.00
12471;BME280;36499;46.484;13.832;2024-01-30T03:57:49;94800.94;;;-5.84;100.00
12471;BME280;36499;46.484;13.832;2024-01-30T04:00:16;94796.38;;;-5.71;100.00
12471;BME280;36499;46.484;13.832;2024-01-30T04:02:44;94795.25;;;-5.61;100.00
12471;BME280;36499;46.484;13.832;2024-01-30T04:05:12;94792.84;;;-5.66;100.00
12471;BME280;36499;46.484;13.832;2024-01-30T04:07:38;94791.91;;;-5.93;100.00
12471;BME280;36499;46.484;13.832;2024-01-30T04:10:06;94788.78;;;-6.01;100.00
12471;BME280;36499;46.484;13.832;2024-01-30T04:12:33;94796.50;;;-6.05;100.00
12471;BME280;36499;46.484;13.832;2024-01-30T04:15:00;94789.69;;;-6.03;100.00
12471;BME280;36499;46.484;13.832;2024-01-30T04:17:27;94786.94;;;-5.96;100.00
12471;BME280;36499;46.484;13.832;2024-01-30T04:19:55;94785.56;;;-5.76;100.00
12471;BME280;36499;46.484;13.832;2024-01-30T04:22:22;94785.28;;;-5.67;100.00
12471;BME280;36499;46.484;13.832;2024-01-30T04:24:49;94787.22;;;-5.75;100.00
12471;BME280;36499;46.484;13.832;2024-01-30T04:27:16;94781.44;;;-5.80;100.00
12471;BME280;36499;46.484;13.832;2024-01-30T04:29:43;94781.56;;;-6.14;100.00
12471;BME280;36499;46.484;13.832;2024-01-30T04:32:09;94780.59;;;-6.10;100.00
12471;BME280;36499;46.484;13.832;2024-01-30T04:34:36;94788.94;;;-6.07;100.00
12471;BME280;36499;46.484;13.832;2024-01-30T04:37:05;94791.00;;;-6.21;100.00
12471;BME280;36499;46.484;13.832;2024-01-30T04:39:33;94782.88;;;-6.31;100.00
12471;BME280;36499;46.484;13.832;2024-01-30T04:41:59;94784.69;;;-6.36;100.00
12471;BME280;36499;46.484;13.832;2024-01-30T04:44:26;94784.56;;;-6.31;100.00
12471;BME280;36499;46.484;13.832;2024-01-30T04:46:53;94786.03;;;-6.24;100.00
12471;BME280;36499;46.484;13.832;2024-01-30T04:49:24;94788.44;;;-6.20;100.00
12471;BME280;36499;46.484;13.832;2024-01-30T04:51:51;94780.56;;;-6.09;100.00
12471;BME280;36499;46.484;13.832;2024-01-30T04:54:19;94776.72;;;-5.93;100.00
12471;BME280;36499;46.484;13.832;2024-01-30T04:56:46;94778.53;;;-5.96;100.00
12471;BME280;36499;46.484;13.832;2024-01-30T04:59:12;94787.22;;;-6.05;100.00
12471;BME280;36499;46.484;13.832;2024-01-30T05:01:39;94789.00;;;-6.08;100.00
12471;BME280;36499;46.484;13.832;2024-01-30T05:04:07;94783.25;;;-6.15;100.00
12471;BME280;36499;46.484;13.832;2024-01-30T05:06:34;94787.69;;;-6.23;100.00
12471;BME280;36499;46.484;13.832;2024-01-30T05:09:01;94790.84;;;-6.15;100.00
12471;BME280;36499;46.484;13.832;2024-01-30T05:11:30;94787.53;;;-6.17;100.00
12471;BME280;36499;46.484;13.832;2024-01-30T05:13:56;94789.28;;;-6.19;100.00
12471;BME280;36499;46.484;13.832;2024-01-30T05:16:23;94788.28;;;-6.13;100.00
12471;BME280;36499;46.484;13.832;2024-01-30T05:18:50;94784.91;;;-6.14;100.00
12471;BME280;36499;46.484;13.832;2024-01-30T05:21:17;94787.75;;;-5.95;100.00
12471;BME280;36499;46.484;13.832;2024-01-30T05:23:44;94785.53;;;-6.06;100.00
12471;BME280;36499;46.484;13.832;2024-01-30T05:26:11;94783.50;;;-6.24;100.00
12471;BME280;36499;46.484;13.832;2024-01-30T05:28:39;94785.94;;;-6.21;100.00
12471;BME280;36499;46.484;13.832;2024-01-30T05:31:06;94793.13;;;-6.37;100.00
12471;BME280;36499;46.484;13.832;2024-01-30T05:33:33;94790.69;;;-6.40;100.00
12471;BME280;36499;46.484;13.832;2024-01-30T05:36:00;94791.63;;;-6.44;100.00
12471;BME280;36499;46.484;13.832;2024-01-30T05:38:26;94787.28;;;-6.39;100.00
12471;BME280;36499;46.484;13.832;2024-01-30T05:40:53;94794.03;;;-6.39;100.00
12471;BME280;36499;46.484;13.832;2024-01-30T05:43:20;94797.44;;;-6.40;100.00
12471;BME280;36499;46.484;13.832;2024-01-30T05:45:48;94795.59;;;-6.34;100.00
12471;BME280;36499;46.484;13.832;2024-01-30T05:48:15;94798.84;;;-6.30;100.00
12471;BME280;36499;46.484;13.832;2024-01-30T05:50:42;94800.38;;;-6.25;100.00
12471;BME280;36499;46.484;13.832;2024-01-30T05:53:10;94805.88;;;-6.40;100.00
12471;BME280;36499;46.484;13.832;2024-01-30T05:55:37;94805.34;;;-6.53;100.00
12471;BME280;36499;46.484;13.832;2024-01-30T05:58:04;94805.56;;;-6.62;100.00
12471;BME280;36499;46.484;13.832;2024-01-30T06:00:30;94799.19;;;-6.75;100.00
12471;BME280;36499;46.484;13.832;2024-01-30T06:02:59;94808.06;;;-6.60;100.00
12471;BME280;36499;46.484;13.832;2024-01-30T06:05:25;94799.41;;;-6.52;100.00
12471;BME280;36499;46.484;13.832;2024-01-30T06:07:52;94806.19;;;-6.54;100.00
12471;BME280;36499;46.484;13.832;2024-01-30T06:10:19;94802.00;;;-6.55;100.00
12471;BME280;36499;46.484;13.832;2024-01-30T06:12:46;94794.28;;;-6.48;100.00
12471;BME280;36499;46.484;13.832;2024-01-30T06:15:13;94799.97;;;-6.40;100.00
12471;BME280;36499;46.484;13.832;2024-01-30T06:17:40;94792.53;;;-6.46;100.00
12471;BME280;36499;46.484;13.832;2024-01-30T06:20:08;94807.69;;;-6.45;100.00
12471;BME280;36499;46.484;13.832;2024-01-30T06:22:35;94811.97;;;-6.48;100.00
12471;BME280;36499;46.484;13.832;2024-01-30T06:25:02;94811.97;;;-6.48;100.00
12471;BME280;36499;46.484;13.832;2024-01-30T06:27:29;94816.34;;;-6.55;100.00
12471;BME280;36499;46.484;13.832;2024-01-30T06:29:56;94812.28;;;-6.61;100.00
12471;BME280;36499;46.484;13.832;2024-01-30T06:32:23;94813.88;;;-6.57;100.00
12471;BME280;36499;46.484;13.832;2024-01-30T06:34:50;94815.38;;;-6.49;100.00
12471;BME280;36499;46.484;13.832;2024-01-30T06:37:18;94808.50;;;-6.44;100.00
12471;BME280;36499;46.484;13.832;2024-01-30T06:39:45;94812.63;;;-6.40;100.00
12471;BME280;36499;46.484;13.832;2024-01-30T06:42:11;94816.81;;;-6.39;100.00
12471;BME280;36499;46.484;13.832;2024-01-30T06:44:39;94819.28;;;-6.70;100.00
12471;BME280;36499;46.484;13.832;2024-01-30T06:47:06;94829.50;;;-6.75;100.00
12471;BME280;36499;46.484;13.832;2024-01-30T06:49:33;94825.97;;;-6.68;100.00
12471;BME280;36499;46.484;13.832;2024-01-30T06:52:00;94832.34;;;-6.55;100.00
12471;BME280;36499;46.484;13.832;2024-01-30T06:54:28;94829.81;;;-6.55;100.00
12471;BME280;36499;46.484;13.832;2024-01-30T06:56:55;94831.41;;;-6.50;100.00
12471;BME280;36499;46.484;13.832;2024-01-30T06:59:22;94829.03;;;-6.57;100.00
12471;BME280;36499;46.484;13.832;2024-01-30T07:01:48;94831.72;;;-6.63;100.00
12471;BME280;36499;46.484;13.832;2024-01-30T07:04:15;94834.97;;;-6.58;100.00
12471;BME280;36499;46.484;13.832;2024-01-30T07:06:43;94837.25;;;-6.48;100.00
12471;BME280;36499;46.484;13.832;2024-01-30T07:09:10;94827.84;;;-6.42;100.00
12471;BME280;36499;46.484;13.832;2024-01-30T07:11:38;94820.66;;;-6.26;100.00
12471;BME280;36499;46.484;13.832;2024-01-30T07:14:05;94827.38;;;-6.25;100.00
12471;BME280;36499;46.484;13.832;2024-01-30T07:16:32;94822.31;;;-6.25;100.00
12471;BME280;36499;46.484;13.832;2024-01-30T07:18:59;94826.25;;;-6.46;100.00
12471;BME280;36499;46.484;13.832;2024-01-30T07:21:26;94826.03;;;-6.71;100.00
12471;BME280;36499;46.484;13.832;2024-01-30T07:23:54;94823.00;;;-6.51;100.00
12471;BME280;36499;46.484;13.832;2024-01-30T07:26:21;94831.31;;;-6.46;100.00
12471;BME280;36499;46.484;13.832;2024-01-30T07:28:49;94833.06;;;-6.49;100.00
12471;BME280;36499;46.484;13.832;2024-01-30T07:31:16;94833.88;;;-6.47;100.00
12471;BME280;36499;46.484;13.832;2024-01-30T07:33:46;94833.59;;;-6.37;100.00
12471;BME280;36499;46.484;13.832;2024-01-30T07:36:13;94835.44;;;-6.43;100.00
12471;BME280;36499;46.484;13.832;2024-01-30T07:38:40;94833.63;;;-6.38;100.00
12471;BME280;36499;46.484;13.832;2024-01-30T07:41:07;94825.94;;;-6.34;100.00
12471;BME280;36499;46.484;13.832;2024-01-30T07:43:33;94835.19;;;-6.33;100.00
12471;BME280;36499;46.484;13.832;2024-01-30T07:46:02;94833.31;;;-6.26;100.00
12471;BME280;36499;46.484;13.832;2024-01-30T07:48:29;94829.75;;;-6.19;100.00
12471;BME280;36499;46.484;13.832;2024-01-30T07:50:56;94832.06;;;-6.11;100.00
12471;BME280;36499;46.484;13.832;2024-01-30T07:53:23;94831.31;;;-6.15;100.00
12471;BME280;36499;46.484;13.832;2024-01-30T07:55:50;94832.88;;;-6.09;100.00
12471;BME280;36499;46.484;13.832;2024-01-30T07:58:17;94822.94;;;-6.17;100.00
12471;BME280;36499;46.484;13.832;2024-01-30T08:00:44;94823.94;;;-6.23;100.00
12471;BME280;36499;46.484;13.832;2024-01-30T08:03:12;94827.09;;;-6.14;100.00
12471;BME280;36499;46.484;13.832;2024-01-30T08:05:41;94829.44;;;-6.07;100.00
12471;BME280;36499;46.484;13.832;2024-01-30T08:08:08;94828.69;;;-6.10;100.00
12471;BME280;36499;46.484;13.832;2024-01-30T08:10:35;94829.50;;;-6.10;100.00
12471;BME280;36499;46.484;13.832;2024-01-30T08:13:02;94831.31;;;-6.15;100.00
12471;BME280;36499;46.484;13.832;2024-01-30T08:15:29;94829.28;;;-6.01;100.00
12471;BME280;36499;46.484;13.832;2024-01-30T08:17:56;94830.13;;;-6.02;100.00
12471;BME280;36499;46.484;13.832;2024-01-30T08:20:25;94826.31;;;-5.86;100.00
12471;BME280;36499;46.484;13.832;2024-01-30T08:22:52;94826.91;;;-5.77;100.00
12471;BME280;36499;46.484;13.832;2024-01-30T08:25:19;94830.31;;;-5.78;100.00
12471;BME280;36499;46.484;13.832;2024-01-30T08:27:47;94827.78;;;-5.78;100.00
12471;BME280;36499;46.484;13.832;2024-01-30T08:30:14;94832.03;;;-5.79;100.00
12471;BME280;36499;46.484;13.832;2024-01-30T08:32:41;94834.34;;;-5.71;100.00
12471;BME280;36499;46.484;13.832;2024-01-30T08:35:08;94824.47;;;-5.51;100.00
12471;BME280;36499;46.484;13.832;2024-01-30T08:37:36;94825.09;;;-5.43;100.00
12471;BME280;36499;46.484;13.832;2024-01-30T08:40:03;94819.28;;;-5.46;100.00
12471;BME280;36499;46.484;13.832;2024-01-30T08:42:30;94828.56;;;-5.19;100.00
12471;BME280;36499;46.484;13.832;2024-01-30T08:44:58;94820.09;;;-5.18;100.00
12471;BME280;36499;46.484;13.832;2024-01-30T08:47:25;94818.22;;;-5.11;100.00
12471;BME280;36499;46.484;13.832;2024-01-30T08:49:52;94819.72;;;-5.32;100.00
12471;BME280;36499;46.484;13.832;2024-01-30T08:52:18;94821.47;;;-5.34;100.00
12471;BME280;36499;46.484;13.832;2024-01-30T08:54:47;94812.69;;;-5.24;100.00
12471;BME280;36499;46.484;13.832;2024-01-30T08:57:14;94815.38;;;-5.29;100.00
12471;BME280;36499;46.484;13.832;2024-01-30T08:59:41;94818.53;;;-5.22;100.00
12471;BME280;36499;46.484;13.832;2024-01-30T09:02:09;94815.81;;;-4.90;100.00
12471;BME280;36499;46.484;13.832;2024-01-30T09:04:38;94813.25;;;-4.88;100.00
12471;BME280;36499;46.484;13.832;2024-01-30T09:07:05;94809.88;;;-4.89;100.00
12471;BME280;36499;46.484;13.832;2024-01-30T09:09:34;94811.50;;;-4.86;100.00
12471;BME280;36499;46.484;13.832;2024-01-30T09:12:03;94808.38;;;-4.68;100.00
12471;BME280;36499;46.484;13.832;2024-01-30T09:14:32;94803.91;;;-4.60;100.00
12471;BME280;36499;46.484;13.832;2024-01-30T09:16:59;94811.66;;;-4.64;100.00
12471;BME280;36499;46.484;13.832;2024-01-30T09:19:26;94803.41;;;-4.71;100.00
12471;BME280;36499;46.484;13.832;2024-01-30T09:21:52;94803.53;;;-4.49;100.00
12471;BME280;36499;46.484;13.832;2024-01-30T09:24:19;94797.53;;;-4.46;100.00
12471;BME280;36499;46.484;13.832;2024-01-30T09:26:46;94799.28;;;-4.48;100.00
12471;BME280;36499;46.484;13.832;2024-01-30T09:29:14;94801.91;;;-4.02;100.00
12471;BME280;36499;46.484;13.832;2024-01-30T09:31:43;94803.44;;;-3.51;100.00
12471;BME280;36499;46.484;13.832;2024-01-30T09:34:10;94801.13;;;-2.90;100.00
12471;BME280;36499;46.484;13.832;2024-01-30T09:36:36;94792.41;;;-1.83;100.00
12471;BME280;36499;46.484;13.832;2024-01-30T09:39:03;94781.66;;;-0.61;100.00
12471;BME280;36499;46.484;13.832;2024-01-30T09:41:32;94789.63;;;-0.50;100.00
12471;BME280;36499;46.484;13.832;2024-01-30T09:44:00;94779.13;;;-0.44;100.00
12471;BME280;36499;46.484;13.832;2024-01-30T09:46:30;94779.50;;;-0.52;100.00
12471;BME280;36499;46.484;13.832;2024-01-30T09:48:58;94783.75;;;-0.35;97.74
12471;BME280;36499;46.484;13.832;2024-01-30T09:51:26;94775.56;;;-0.24;95.71
12471;BME280;36499;46.484;13.832;2024-01-30T09:53:54;94776.06;;;-0.00;95.81
12471;BME280;36499;46.484;13.832;2024-01-30T09:56:22;94775.28;;;0.15;96.33
12471;BME280;36499;46.484;13.832;2024-01-30T09:58:49;94773.41;;;0.34;92.82
12471;BME280;36499;46.484;13.832;2024-01-30T10:01:17;94772.53;;;0.67;90.39
12471;BME280;36499;46.484;13.832;2024-01-30T10:03:45;94766.97;;;0.60;92.99
12471;BME280;36499;46.484;13.832;2024-01-30T10:06:13;94758.94;;;0.66;94.43
12471;BME280;36499;46.484;13.832;2024-01-30T10:08:42;94760.31;;;1.03;94.10
12471;BME280;36499;46.484;13.832;2024-01-30T10:11:09;94758.25;;;1.10;92.74
12471;BME280;36499;46.484;13.832;2024-01-30T10:13:36;94742.88;;;1.26;93.46
12471;BME280;36499;46.484;13.832;2024-01-30T10:16:06;94741.31;;;1.67;92.02
12471;BME280;36499;46.484;13.832;2024-01-30T10:18:33;94740.97;;;1.73;89.70
12471;BME280;36499;46.484;13.832;2024-01-30T10:21:01;94744.38;;;1.88;91.17
12471;BME280;36499;46.484;13.832;2024-01-30T10:23:29;94738.38;;;2.32;89.20
12471;BME280;36499;46.484;13.832;2024-01-30T10:25:55;94733.22;;;2.46;86.05
12471;BME280;36499;46.484;13.832;2024-01-30T10:28:22;94733.03;;;2.49;84.57
12471;BME280;36499;46.484;13.832;2024-01-30T10:30:57;94727.16;;;2.88;81.00
12471;BME280;36499;46.484;13.832;2024-01-30T10:33:25;94716.06;;;3.14;80.15
12471;BME280;36499;46.484;13.832;2024-01-30T10:35:54;94710.69;;;3.32;80.49
12471;BME280;36499;46.484;13.832;2024-01-30T10:38:25;94708.75;;;3.35;80.52
12471;BME280;36499;46.484;13.832;2024-01-30T10:40:56;94709.22;;;3.67;78.64
12471;BME280;36499;46.484;13.832;2024-01-30T10:43:24;94706.22;;;3.86;75.00
12471;BME280;36499;46.484;13.832;2024-01-30T10:45:57;94696.47;;;3.91;71.92
12471;BME280;36499;46.484;13.832;2024-01-30T10:48:32;94696.38;;;4.05;71.72
12471;BME280;36499;46.484;13.832;2024-01-30T10:51:02;94686.28;;;4.02;73.64
12471;BME280;36499;46.484;13.832;2024-01-30T10:53:32;94694.00;;;4.02;72.78
12471;BME280;36499;46.484;13.832;2024-01-30T10:56:01;94692.34;;;4.14;72.49
12471;BME280;36499;46.484;13.832;2024-01-30T10:58:29;94688.94;;;4.39;70.06
12471;BME280;36499;46.484;13.832;2024-01-30T11:00:56;94682.88;;;4.40;67.13
12471;BME280;36499;46.484;13.832;2024-01-30T11:03:24;94685.59;;;4.62;66.24
12471;BME280;36499;46.484;13.832;2024-01-30T11:05:51;94672.06;;;4.95;66.05
12471;BME280;36499;46.484;13.832;2024-01-30T11:08:23;94672.53;;;5.24;67.39
12471;BME280;36499;46.484;13.832;2024-01-30T11:10:57;94668.38;;;5.34;68.00
12471;BME280;36499;46.484;13.832;2024-01-30T11:13:27;94662.88;;;5.39;66.89
12471;BME280;36499;46.484;13.832;2024-01-30T11:15:55;94660.31;;;5.15;64.86
12471;BME280;36499;46.484;13.832;2024-01-30T11:18:28;94656.69;;;5.52;64.40
12471;BME280;36499;46.484;13.832;2024-01-30T11:20:56;94652.66;;;5.72;60.87
12471;BME280;36499;46.484;13.832;2024-01-30T11:23:23;94652.78;;;5.82;63.54
12471;BME280;36499;46.484;13.832;2024-01-30T11:25:53;94649.03;;;5.97;62.80
12471;BME280;36499;46.484;13.832;2024-01-30T11:28:21;94655.00;;;5.98;62.82
12471;BME280;36499;46.484;13.832;2024-01-30T11:30:48;94645.84;;;5.93;64.54
12471;BME280;36499;46.484;13.832;2024-01-30T11:33:27;94643.41;;;6.03;63.48
12471;BME280;36499;46.484;13.832;2024-01-30T11:35:57;94643.53;;;6.13;61.59
12471;BME280;36499;46.484;13.832;2024-01-30T11:38:25;94638.00;;;6.17;60.69
12471;BME280;36499;46.484;13.832;2024-01-30T11:40:54;94634.97;;;6.12;59.75
12471;BME280;36499;46.484;13.832;2024-01-30T11:43:21;94630.84;;;6.21;58.38
12471;BME280;36499;46.484;13.832;2024-01-30T11:45:48;94635.66;;;6.37;54.13
12471;BME280;36499;46.484;13.832;2024-01-30T11:48:15;94634.34;;;6.53;51.89
12471;BME280;36499;46.484;13.832;2024-01-30T11:50:43;94629.19;;;6.65;51.28
12471;BME280;36499;46.484;13.832;2024-01-30T11:53:11;94623.44;;;6.61;50.28
12471;BME280;36499;46.484;13.832;2024-01-30T11:55:38;94624.84;;;6.65;49.89
12471;BME280;36499;46.484;13.832;2024-01-30T11:58:06;94624.47;;;6.70;49.48
12471;BME280;36499;46.484;13.832;2024-01-30T12:00:33;94619.06;;;6.73;48.00
12471;BME280;36499;46.484;13.832;2024-01-30T12:03:01;94613.59;;;6.87;46.76
12471;BME280;36499;46.484;13.832;2024-01-30T12:05:28;94610.66;;;6.91;44.30
12471;BME280;36499;46.484;13.832;2024-01-30T12:07:55;94604.84;;;7.10;42.36
12471;BME280;36499;46.484;13.832;2024-01-30T12:10:24;94609.44;;;7.07;40.21
12471;BME280;36499;46.484;13.832;2024-01-30T12:12:51;94613.66;;;7.08;39.43
12471;BME280;36499;46.484;13.832;2024-01-30T12:15:21;94607.66;;;7.07;40.27
12471;BME280;36499;46.484;13.832;2024-01-30T12:17:48;94597.00;;;7.21;41.71
12471;BME280;36499;46.484;13.832;2024-01-30T12:20:18;94603.19;;;7.30;41.06
12471;BME280;36499;46.484;13.832;2024-01-30T12:22:46;94598.28;;;7.27;40.77
12471;BME280;36499;46.484;13.832;2024-01-30T12:25:14;94600.69;;;7.40;39.82
12471;BME280;36499;46.484;13.832;2024-01-30T12:27:43;94593.44;;;7.34;39.99
12471;BME280;36499;46.484;13.832;2024-01-30T12:30:11;94593.75;;;7.40;40.26
12471;BME280;36499;46.484;13.832;2024-01-30T12:32:41;94592.88;;;7.51;40.56
12471;BME280;36499;46.484;13.832;2024-01-30T12:35:10;94584.53;;;7.47;41.82
12471;BME280;36499;46.484;13.832;2024-01-30T12:37:37;94586.22;;;7.58;41.73
12471;BME280;36499;46.484;13.832;2024-01-30T12:40:05;94581.47;;;7.53;42.03
12471;BME280;36499;46.484;13.832;2024-01-30T12:42:32;94587.13;;;7.47;42.00
12471;BME280;36499;46.484;13.832;2024-01-30T12:44:59;94580.06;;;7.49;45.04
12471;BME280;36499;46.484;13.832;2024-01-30T12:47:26;94574.44;;;7.44;46.33
12471;BME280;36499;46.484;13.832;2024-01-30T12:49:54;94570.66;;;7.27;44.24